createdAt,value
2018-05-18T00:00:50.621Z,8.86
2018-05-18T00:01:50.562Z,8.86
2018-05-18T00:02:50.509Z,8.78
2018-05-18T00:03:50.446Z,8.65
2018-05-18T00:04:50.386Z,8.53
2018-05-18T00:05:50.327Z,8.53
2018-05-18T00:06:50.267Z,8.37
2018-05-18T00:07:50.211Z,8.37
2018-05-18T00:08:50.148Z,8.36
2018-05-18T00:09:50.091Z,8.30
2018-05-18T00:10:50.032Z,8.33
2018-05-18T00:11:49.976Z,8.22
2018-05-18T00:12:49.911Z,8.25
2018-05-18T00:13:49.857Z,8.18
2018-05-18T00:14:49.800Z,8.21
2018-05-18T00:15:49.734Z,8.03
2018-05-18T00:16:49.673Z,8.15
2018-05-18T00:17:49.613Z,8.07
2018-05-18T00:18:49.555Z,8.20
2018-05-18T00:19:49.495Z,8.20
2018-05-18T00:20:49.437Z,8.15
2018-05-18T00:21:49.376Z,8.21
2018-05-18T00:22:49.320Z,8.25
2018-05-18T00:23:49.256Z,8.21
2018-05-18T00:24:49.197Z,8.21
2018-05-18T00:25:49.137Z,8.17
2018-05-18T00:26:49.083Z,8.26
2018-05-18T00:27:49.018Z,8.25
2018-05-18T00:28:49.002Z,8.25
2018-05-18T00:29:48.899Z,8.20
2018-05-18T00:30:48.841Z,8.29
2018-05-18T00:31:48.785Z,8.26
2018-05-18T00:32:48.720Z,8.22
2018-05-18T00:33:48.660Z,8.21
2018-05-18T00:34:48.601Z,8.28
2018-05-18T00:35:48.542Z,8.29
2018-05-18T00:36:48.482Z,8.37
2018-05-18T00:37:48.421Z,8.35
2018-05-18T00:38:48.362Z,8.45
2018-05-18T00:39:48.304Z,8.36
2018-05-18T00:40:48.243Z,8.37
2018-05-18T00:41:48.184Z,8.50
2018-05-18T00:42:48.125Z,8.45
2018-05-18T00:43:48.066Z,8.47
2018-05-18T00:44:48.011Z,8.47
2018-05-18T00:45:47.946Z,8.51
2018-05-18T00:46:47.888Z,8.51
2018-05-18T00:47:47.827Z,8.50
2018-05-18T00:48:47.768Z,8.50
2018-05-18T00:49:47.708Z,8.53
2018-05-18T00:50:47.654Z,8.45
2018-05-18T00:51:47.590Z,8.53
2018-05-18T00:52:47.531Z,8.53
2018-05-18T00:53:47.471Z,8.53
2018-05-18T00:54:47.413Z,8.53
2018-05-18T00:55:47.352Z,8.54
2018-05-18T00:56:47.297Z,8.51
2018-05-18T00:57:47.240Z,8.54
2018-05-18T00:58:47.174Z,8.48
2018-05-18T00:59:47.114Z,8.55
2018-05-18T01:00:47.056Z,8.63
2018-05-18T01:01:46.996Z,8.54
2018-05-18T01:02:46.936Z,8.65
2018-05-18T01:03:46.878Z,8.62
2018-05-18T01:04:46.817Z,8.63
2018-05-18T01:05:46.759Z,8.68
2018-05-18T01:06:46.699Z,8.66
2018-05-18T01:07:46.640Z,8.55
2018-05-18T01:08:46.580Z,8.58
2018-05-18T01:09:46.521Z,8.51
2018-05-18T01:10:46.461Z,8.58
2018-05-18T01:11:46.403Z,8.55
2018-05-18T01:12:46.343Z,8.53
2018-05-18T01:13:46.284Z,8.50
2018-05-18T01:14:46.224Z,8.33
2018-05-18T01:15:46.185Z,8.32
2018-05-18T01:16:46.104Z,8.28
2018-05-18T01:17:46.049Z,8.35
2018-05-18T01:18:45.988Z,8.36
2018-05-18T01:19:45.929Z,8.29
2018-05-18T01:20:45.868Z,8.32
2018-05-18T01:21:45.811Z,8.42
2018-05-18T01:22:45.748Z,8.40
2018-05-18T01:23:45.689Z,8.37
2018-05-18T01:24:45.629Z,8.40
2018-05-18T01:25:45.568Z,8.37
2018-05-18T01:26:45.509Z,8.42
2018-05-18T01:27:45.451Z,8.39
2018-05-18T01:28:45.391Z,8.40
2018-05-18T01:29:45.331Z,8.42
2018-05-18T01:30:45.272Z,8.39
2018-05-18T01:31:45.211Z,8.39
2018-05-18T01:32:45.151Z,8.51
2018-05-18T01:33:45.093Z,8.47
2018-05-18T01:34:45.033Z,8.47
2018-05-18T01:35:44.973Z,8.50
2018-05-18T01:36:44.913Z,8.54
2018-05-18T01:37:44.856Z,8.48
2018-05-18T01:38:44.795Z,8.50
2018-05-18T01:39:44.735Z,8.51
2018-05-18T01:40:44.676Z,8.50
2018-05-18T01:41:44.617Z,8.53
2018-05-18T01:42:44.555Z,8.57
2018-05-18T01:43:44.498Z,8.57
2018-05-18T01:44:44.435Z,8.54
2018-05-18T01:45:44.377Z,8.62
2018-05-18T01:46:44.318Z,8.63
2018-05-18T01:47:44.257Z,8.65
2018-05-18T01:48:44.277Z,8.62
2018-05-18T01:49:44.140Z,8.73
2018-05-18T01:50:44.083Z,8.69
2018-05-18T01:51:44.025Z,8.66
2018-05-18T01:52:43.959Z,8.65
2018-05-18T01:53:43.899Z,8.71
2018-05-18T01:54:43.847Z,8.76
2018-05-18T01:55:43.781Z,8.71
2018-05-18T01:56:43.721Z,8.71
2018-05-18T01:57:43.667Z,8.62
2018-05-18T01:58:43.604Z,8.51
2018-05-18T01:59:43.543Z,8.54
2018-05-18T02:00:43.485Z,8.36
2018-05-18T02:01:43.424Z,8.44
2018-05-18T02:02:43.371Z,8.36
2018-05-18T02:03:43.307Z,8.40
2018-05-18T02:04:43.246Z,8.47
2018-05-18T02:05:43.185Z,8.36
2018-05-18T02:06:43.128Z,8.39
2018-05-18T02:07:43.067Z,8.40
2018-05-18T02:08:43.007Z,8.33
2018-05-18T02:09:42.948Z,8.33
2018-05-18T02:10:42.887Z,8.29
2018-05-18T02:11:42.837Z,8.33
2018-05-18T02:12:42.769Z,8.29
2018-05-18T02:13:42.708Z,8.18
2018-05-18T02:14:42.649Z,8.17
2018-05-18T02:15:42.591Z,8.04
2018-05-18T02:16:42.546Z,7.92
2018-05-18T02:17:42.470Z,7.82
2018-05-18T02:18:42.409Z,7.77
2018-05-18T02:19:42.356Z,7.87
2018-05-18T02:20:42.289Z,7.78
2018-05-18T02:21:42.230Z,7.75
2018-05-18T02:22:42.171Z,7.74
2018-05-18T02:23:42.114Z,7.74
2018-05-18T02:24:42.050Z,7.79
2018-05-18T02:25:41.991Z,7.67
2018-05-18T02:26:41.930Z,7.77
2018-05-18T02:27:41.871Z,7.78
2018-05-18T02:28:41.810Z,7.79
2018-05-18T02:29:41.750Z,7.69
2018-05-18T02:30:41.689Z,7.74
2018-05-18T02:31:41.631Z,7.69
2018-05-18T02:32:41.570Z,7.75
2018-05-18T02:33:41.510Z,7.72
2018-05-18T02:34:41.453Z,7.77
2018-05-18T02:35:41.391Z,7.74
2018-05-18T02:36:41.330Z,7.78
2018-05-18T02:37:41.269Z,7.77
2018-05-18T02:38:41.210Z,7.78
2018-05-18T02:39:41.152Z,7.75
2018-05-18T02:40:41.098Z,7.78
2018-05-18T02:41:41.030Z,7.69
2018-05-18T02:42:40.978Z,7.75
2018-05-18T02:43:40.944Z,7.71
2018-05-18T02:44:40.850Z,7.63
2018-05-18T02:45:40.791Z,7.67
2018-05-18T02:46:40.730Z,7.71
2018-05-18T02:47:40.669Z,7.60
2018-05-18T02:48:40.608Z,7.67
2018-05-18T02:49:40.561Z,7.53
2018-05-18T02:50:40.491Z,7.58
2018-05-18T02:51:40.433Z,7.56
2018-05-18T02:52:40.371Z,7.42
2018-05-18T02:53:40.307Z,7.44
2018-05-18T02:54:40.247Z,7.45
2018-05-18T02:55:40.194Z,7.50
2018-05-18T02:56:40.128Z,7.38
2018-05-18T02:57:40.066Z,7.47
2018-05-18T02:58:40.011Z,7.44
2018-05-18T02:59:39.945Z,7.45
2018-05-18T03:00:39.884Z,7.44
2018-05-18T03:01:39.825Z,7.49
2018-05-18T03:02:39.766Z,7.42
2018-05-18T03:03:39.704Z,7.50
2018-05-18T03:04:39.647Z,7.47
2018-05-18T03:05:39.584Z,7.45
2018-05-18T03:06:39.523Z,7.47
2018-05-18T03:07:39.463Z,7.38
2018-05-18T03:08:39.403Z,7.34
2018-05-18T03:09:39.341Z,7.34
2018-05-18T03:10:39.283Z,7.38
2018-05-18T03:11:39.223Z,7.22
2018-05-18T03:12:39.166Z,7.20
2018-05-18T03:13:39.102Z,7.07
2018-05-18T03:14:39.041Z,7.13
2018-05-18T03:15:38.983Z,7.05
2018-05-18T03:16:38.920Z,7.09
2018-05-18T03:17:38.860Z,7.09
2018-05-18T03:18:38.803Z,7.08
2018-05-18T03:19:38.740Z,7.16
2018-05-18T03:20:38.677Z,7.09
2018-05-18T03:21:38.617Z,7.08
2018-05-18T03:22:38.558Z,7.08
2018-05-18T03:23:38.500Z,7.09
2018-05-18T03:24:38.439Z,7.13
2018-05-18T03:25:38.379Z,7.08
2018-05-18T03:26:38.315Z,7.12
2018-05-18T03:27:38.257Z,7.12
2018-05-18T03:28:38.194Z,7.05
2018-05-18T03:29:38.135Z,7.09
2018-05-18T03:30:38.075Z,7.13
2018-05-18T03:31:38.014Z,6.99
2018-05-18T03:32:37.953Z,6.97
2018-05-18T03:33:37.892Z,6.94
2018-05-18T03:34:37.832Z,6.97
2018-05-18T03:35:37.773Z,6.94
2018-05-18T03:36:37.712Z,6.97
2018-05-18T03:37:37.652Z,6.97
2018-05-18T03:38:37.590Z,6.95
2018-05-18T03:39:37.529Z,6.94
2018-05-18T03:40:37.470Z,7.01
2018-05-18T03:41:37.409Z,7.04
2018-05-18T03:42:37.349Z,7.12
2018-05-18T03:43:37.288Z,7.02
2018-05-18T03:44:37.226Z,6.97
2018-05-18T03:45:37.168Z,6.94
2018-05-18T03:46:37.107Z,6.90
2018-05-18T03:47:37.051Z,6.86
2018-05-18T03:48:36.985Z,6.79
2018-05-18T03:49:36.925Z,6.83
2018-05-18T03:50:36.865Z,6.83
2018-05-18T03:51:36.803Z,6.84
2018-05-18T03:52:36.742Z,6.86
2018-05-18T03:53:36.686Z,6.83
2018-05-18T03:54:36.622Z,6.77
2018-05-18T03:55:36.561Z,6.77
2018-05-18T03:56:36.500Z,6.83
2018-05-18T03:57:36.439Z,6.83
2018-05-18T03:58:36.380Z,6.73
2018-05-18T03:59:36.319Z,6.81
2018-05-18T04:00:36.258Z,6.81
2018-05-18T04:01:36.196Z,6.72
2018-05-18T04:02:36.136Z,6.71
2018-05-18T04:03:36.075Z,6.72
2018-05-18T04:04:36.023Z,6.68
2018-05-18T04:05:35.954Z,6.73
2018-05-18T04:06:35.895Z,6.77
2018-05-18T04:07:35.833Z,6.77
2018-05-18T04:08:35.772Z,6.72
2018-05-18T04:09:35.717Z,6.72
2018-05-18T04:10:35.652Z,6.71
2018-05-18T04:11:35.591Z,6.68
2018-05-18T04:12:35.530Z,6.71
2018-05-18T04:13:35.468Z,6.71
2018-05-18T04:14:35.410Z,6.77
2018-05-18T04:15:35.349Z,6.80
2018-05-18T04:16:35.287Z,6.68
2018-05-18T04:17:35.226Z,6.66
2018-05-18T04:18:35.167Z,6.68
2018-05-18T04:19:35.107Z,6.71
2018-05-18T04:20:35.043Z,6.66
2018-05-18T04:21:34.982Z,6.69
2018-05-18T04:22:34.925Z,6.69
2018-05-18T04:23:34.862Z,6.72
2018-05-18T04:24:34.800Z,6.71
2018-05-18T04:25:34.740Z,6.66
2018-05-18T04:26:34.680Z,6.69
2018-05-18T04:27:34.618Z,6.72
2018-05-18T04:28:34.560Z,6.72
2018-05-18T04:29:34.499Z,6.73
2018-05-18T04:30:34.437Z,6.68
2018-05-18T04:31:34.375Z,6.69
2018-05-18T04:32:34.314Z,6.69
2018-05-18T04:33:34.254Z,6.68
2018-05-18T04:34:34.193Z,6.76
2018-05-18T04:35:34.133Z,6.76
2018-05-18T04:36:34.069Z,6.68
2018-05-18T04:37:34.009Z,6.69
2018-05-18T04:38:33.948Z,6.65
2018-05-18T04:39:33.964Z,6.71
2018-05-18T04:40:33.827Z,6.68
2018-05-18T04:41:33.765Z,6.76
2018-05-18T04:42:33.705Z,6.84
2018-05-18T04:43:33.642Z,6.77
2018-05-18T04:44:33.584Z,6.87
2018-05-18T04:45:33.523Z,6.87
2018-05-18T04:46:33.461Z,6.97
2018-05-18T04:47:33.401Z,6.99
2018-05-18T04:48:33.338Z,7.04
2018-05-18T04:49:33.279Z,7.08
2018-05-18T04:50:33.216Z,7.08
2018-05-18T04:51:33.160Z,7.07
2018-05-18T04:52:33.096Z,7.09
2018-05-18T04:53:33.038Z,7.08
2018-05-18T04:54:32.974Z,7.13
2018-05-18T04:55:32.919Z,7.17
2018-05-18T04:56:32.853Z,7.20
2018-05-18T04:57:32.792Z,7.17
2018-05-18T04:58:32.731Z,7.32
2018-05-18T04:59:32.674Z,7.34
2018-05-18T05:00:32.610Z,7.32
2018-05-18T05:01:32.550Z,7.42
2018-05-18T05:02:32.491Z,7.41
2018-05-18T05:03:32.430Z,7.45
2018-05-18T05:04:32.368Z,7.47
2018-05-18T05:05:32.379Z,7.55
2018-05-18T05:06:32.248Z,7.59
2018-05-18T05:07:32.188Z,7.62
2018-05-18T05:08:32.127Z,7.62
2018-05-18T05:09:32.068Z,7.67
2018-05-18T05:10:32.008Z,7.63
2018-05-18T05:11:31.947Z,7.72
2018-05-18T05:12:31.919Z,7.77
2018-05-18T05:13:31.847Z,7.74
2018-05-18T05:14:31.766Z,7.66
2018-05-18T05:15:31.706Z,7.74
2018-05-18T05:16:31.650Z,7.74
2018-05-18T05:17:31.586Z,7.79
2018-05-18T05:18:31.526Z,7.87
2018-05-18T05:19:31.466Z,7.85
2018-05-18T05:20:31.408Z,7.90
2018-05-18T05:21:31.350Z,7.99
2018-05-18T05:22:31.289Z,8.00
2018-05-18T05:23:31.226Z,8.02
2018-05-18T05:24:31.167Z,8.03
2018-05-18T05:25:31.109Z,8.11
2018-05-18T05:26:31.052Z,8.10
2018-05-18T05:27:30.986Z,8.21
2018-05-18T05:28:30.928Z,8.18
2018-05-18T05:29:30.869Z,8.18
2018-05-18T05:30:30.810Z,8.28
2018-05-18T05:31:30.747Z,8.29
2018-05-18T05:32:30.692Z,8.30
2018-05-18T05:33:30.627Z,8.22
2018-05-18T05:34:30.573Z,8.36
2018-05-18T05:35:30.508Z,8.36
2018-05-18T05:36:30.449Z,8.44
2018-05-18T05:37:30.388Z,8.40
2018-05-18T05:38:30.333Z,8.48
2018-05-18T05:39:30.269Z,8.47
2018-05-18T05:40:30.211Z,8.45
2018-05-18T05:41:30.148Z,8.54
2018-05-18T05:42:30.089Z,8.57
2018-05-18T05:43:30.030Z,8.66
2018-05-18T05:44:29.968Z,8.66
2018-05-18T05:45:29.909Z,8.66
2018-05-18T05:46:29.853Z,8.60
2018-05-18T05:47:29.790Z,8.62
2018-05-18T05:48:29.729Z,8.63
2018-05-18T05:49:29.670Z,8.69
2018-05-18T05:50:29.674Z,8.73
2018-05-18T05:51:29.551Z,8.71
2018-05-18T05:52:29.491Z,8.73
2018-05-18T05:53:29.430Z,8.75
2018-05-18T05:54:29.371Z,8.81
2018-05-18T05:55:29.313Z,8.84
2018-05-18T05:56:29.253Z,8.90
2018-05-18T05:57:29.192Z,8.87
2018-05-18T05:58:29.224Z,8.79
2018-05-18T05:59:29.076Z,8.84
2018-05-18T06:00:29.014Z,8.86
2018-05-18T06:01:28.955Z,8.90
2018-05-18T06:02:28.895Z,9.02
2018-05-18T06:03:28.835Z,9.16
2018-05-18T06:04:28.775Z,9.15
2018-05-18T06:05:28.802Z,9.21
2018-05-18T06:06:28.661Z,9.28
2018-05-18T06:07:28.600Z,9.32
2018-05-18T06:08:28.538Z,9.45
2018-05-18T06:09:28.478Z,9.50
2018-05-18T06:10:28.420Z,9.46
2018-05-18T06:11:28.360Z,9.56
2018-05-18T06:12:28.302Z,9.58
2018-05-18T06:13:28.244Z,9.61
2018-05-18T06:14:28.183Z,9.61
2018-05-18T06:15:28.123Z,9.64
2018-05-18T06:16:28.063Z,9.67
2018-05-18T06:17:28.004Z,9.63
2018-05-18T06:18:27.946Z,9.66
2018-05-18T06:19:27.911Z,9.63
2018-05-18T06:20:27.827Z,9.67
2018-05-18T06:21:27.768Z,9.67
2018-05-18T06:22:27.708Z,9.66
2018-05-18T06:23:27.649Z,9.70
2018-05-18T06:24:27.589Z,9.78
2018-05-18T06:25:27.530Z,9.78
2018-05-18T06:26:27.470Z,9.93
2018-05-18T06:27:27.413Z,9.97
2018-05-18T06:28:27.352Z,10.01
2018-05-18T06:29:27.298Z,10.07
2018-05-18T06:30:27.234Z,10.00
2018-05-18T06:31:27.179Z,10.04
2018-05-18T06:32:27.115Z,10.01
2018-05-18T06:33:27.060Z,10.12
2018-05-18T06:34:27.000Z,10.21
2018-05-18T06:35:26.939Z,10.26
2018-05-18T06:36:26.879Z,10.32
2018-05-18T06:37:26.820Z,10.34
2018-05-18T06:38:26.766Z,10.43
2018-05-18T06:39:26.704Z,10.51
2018-05-18T06:40:26.643Z,10.55
2018-05-18T06:41:26.585Z,10.76
2018-05-18T06:42:26.535Z,10.76
2018-05-18T06:43:26.469Z,10.88
2018-05-18T06:44:26.409Z,10.88
2018-05-18T06:45:26.351Z,10.89
2018-05-18T06:46:26.291Z,10.95
2018-05-18T06:47:26.234Z,11.01
2018-05-18T06:48:26.172Z,10.99
2018-05-18T06:49:26.114Z,11.01
2018-05-18T06:50:26.059Z,11.10
2018-05-18T06:51:25.998Z,11.09
2018-05-18T06:52:25.940Z,11.17
2018-05-18T06:53:25.881Z,11.11
2018-05-18T06:54:25.822Z,11.21
2018-05-18T06:55:25.766Z,11.29
2018-05-18T06:56:25.705Z,11.36
2018-05-18T06:57:25.647Z,11.38
2018-05-18T06:58:25.590Z,11.53
2018-05-18T06:59:25.531Z,11.50
2018-05-18T07:00:25.476Z,11.57
2018-05-18T07:01:25.413Z,11.62
2018-05-18T07:02:25.356Z,11.68
2018-05-18T07:03:25.300Z,11.80
2018-05-18T07:04:25.253Z,11.83
2018-05-18T07:05:25.182Z,11.97
2018-05-18T07:06:25.125Z,11.93
2018-05-18T07:07:25.067Z,11.90
2018-05-18T07:08:25.010Z,11.93
2018-05-18T07:09:24.953Z,12.06
2018-05-18T07:10:24.951Z,12.06
2018-05-18T07:11:24.835Z,12.12
2018-05-18T07:12:24.777Z,12.11
2018-05-18T07:13:24.720Z,12.19
2018-05-18T07:14:24.666Z,12.26
2018-05-18T07:15:24.605Z,12.33
2018-05-18T07:16:24.610Z,12.44
2018-05-18T07:17:24.490Z,12.48
2018-05-18T07:18:24.432Z,12.46
2018-05-18T07:19:24.376Z,12.62
2018-05-18T07:20:24.317Z,12.60
2018-05-18T07:21:24.259Z,12.59
2018-05-18T07:22:24.202Z,12.57
2018-05-18T07:23:24.145Z,12.75
2018-05-18T07:24:24.087Z,12.77
2018-05-18T07:25:24.030Z,12.79
2018-05-18T07:26:23.975Z,12.82
2018-05-18T07:27:23.917Z,12.89
2018-05-18T07:28:23.858Z,12.97
2018-05-18T07:29:23.800Z,12.95
2018-05-18T07:30:23.746Z,13.20
2018-05-18T07:31:23.687Z,13.11
2018-05-18T07:32:23.631Z,13.15
2018-05-18T07:33:23.573Z,13.20
2018-05-18T07:34:23.516Z,13.24
2018-05-18T07:35:23.463Z,13.29
2018-05-18T07:36:23.405Z,13.40
2018-05-18T07:37:23.345Z,13.40
2018-05-18T07:38:23.289Z,13.51
2018-05-18T07:39:23.232Z,13.56
2018-05-18T07:40:23.174Z,13.56
2018-05-18T07:41:23.121Z,13.70
2018-05-18T07:42:23.062Z,13.58
2018-05-18T07:43:23.007Z,13.62
2018-05-18T07:44:22.948Z,13.67
2018-05-18T07:45:22.895Z,13.70
2018-05-18T07:46:22.835Z,13.63
2018-05-18T07:47:22.777Z,13.71
2018-05-18T07:48:22.723Z,13.80
2018-05-18T07:49:22.665Z,13.87
2018-05-18T07:50:22.609Z,13.98
2018-05-18T07:51:22.552Z,14.02
2018-05-18T07:52:22.497Z,13.99
2018-05-18T07:53:22.438Z,14.01
2018-05-18T07:54:22.386Z,14.09
2018-05-18T07:55:22.326Z,14.14
2018-05-18T07:56:22.271Z,14.19
2018-05-18T07:57:22.215Z,14.32
2018-05-18T07:58:22.158Z,14.32
2018-05-18T07:59:22.107Z,14.44
2018-05-18T08:00:22.045Z,14.44
2018-05-18T08:01:21.988Z,14.50
2018-05-18T08:02:21.935Z,14.53
2018-05-18T08:03:21.882Z,14.67
2018-05-18T08:04:21.821Z,14.69
2018-05-18T08:05:21.765Z,14.86
2018-05-18T08:06:21.708Z,14.90
2018-05-18T08:07:21.653Z,14.91
2018-05-18T08:08:21.597Z,15.03
2018-05-18T08:09:21.541Z,15.09
2018-05-18T08:10:21.487Z,14.95
2018-05-18T08:11:21.430Z,15.08
2018-05-18T08:12:21.372Z,14.95
2018-05-18T08:13:21.321Z,14.99
2018-05-18T08:14:21.263Z,15.03
2018-05-18T08:15:21.208Z,15.20
2018-05-18T08:16:21.150Z,15.31
2018-05-18T08:17:21.097Z,15.42
2018-05-18T08:18:21.043Z,15.48
2018-05-18T08:19:20.985Z,15.61
2018-05-18T08:20:20.931Z,15.86
2018-05-18T08:21:20.873Z,15.96
2018-05-18T08:22:20.820Z,15.93
2018-05-18T08:23:20.763Z,16.00
2018-05-18T08:24:20.708Z,16.00
2018-05-18T08:25:20.656Z,16.03
2018-05-18T08:26:20.599Z,16.04
2018-05-18T08:27:20.544Z,16.11
2018-05-18T08:28:20.488Z,16.14
2018-05-18T08:29:20.434Z,16.14
2018-05-18T08:30:20.379Z,16.14
2018-05-18T08:31:20.324Z,16.22
2018-05-18T08:32:20.269Z,16.16
2018-05-18T08:33:20.214Z,16.38
2018-05-18T08:34:20.161Z,16.48
2018-05-18T08:35:20.107Z,16.53
2018-05-18T08:36:20.052Z,16.58
2018-05-18T08:37:19.996Z,16.55
2018-05-18T08:38:19.944Z,16.67
2018-05-18T08:39:19.888Z,16.70
2018-05-18T08:40:19.834Z,16.77
2018-05-18T08:41:19.781Z,16.62
2018-05-18T08:42:19.725Z,16.71
2018-05-18T08:43:19.672Z,16.68
2018-05-18T08:44:19.666Z,16.70
2018-05-18T08:45:19.563Z,16.77
2018-05-18T08:46:19.511Z,16.77
2018-05-18T08:47:19.460Z,17.00
2018-05-18T08:48:19.401Z,17.07
2018-05-18T08:49:19.351Z,17.11
2018-05-18T08:50:19.310Z,17.17
2018-05-18T08:51:19.240Z,17.00
2018-05-18T08:52:19.187Z,16.78
2018-05-18T08:53:19.132Z,16.81
2018-05-18T08:54:19.078Z,16.71
2018-05-18T08:55:19.026Z,16.78
2018-05-18T08:56:18.971Z,16.70
2018-05-18T08:57:18.917Z,16.70
2018-05-18T08:58:18.865Z,16.71
2018-05-18T08:59:18.820Z,16.83
2018-05-18T09:00:18.755Z,16.77
2018-05-18T09:01:18.701Z,16.81
2018-05-18T09:02:18.649Z,17.08
2018-05-18T09:03:18.593Z,17.20
2018-05-18T09:04:18.539Z,17.41
2018-05-18T09:05:18.487Z,17.54
2018-05-18T09:06:18.433Z,17.54
2018-05-18T09:07:18.380Z,17.62
2018-05-18T09:08:18.326Z,17.69
2018-05-18T09:09:18.274Z,17.81
2018-05-18T09:10:18.218Z,17.74
2018-05-18T09:11:18.171Z,17.79
2018-05-18T09:12:18.111Z,17.79
2018-05-18T09:13:18.060Z,17.84
2018-05-18T09:14:18.008Z,17.85
2018-05-18T09:15:17.956Z,17.97
2018-05-18T09:16:17.899Z,18.04
2018-05-18T09:17:17.846Z,17.95
2018-05-18T09:18:17.795Z,17.89
2018-05-18T09:19:17.741Z,17.89
2018-05-18T09:20:17.689Z,18.03
2018-05-18T09:21:17.635Z,18.15
2018-05-18T09:22:17.582Z,18.15
2018-05-18T09:23:17.529Z,18.17
2018-05-18T09:24:17.478Z,17.92
2018-05-18T09:25:17.424Z,17.87
2018-05-18T09:26:17.370Z,17.99
2018-05-18T09:27:17.318Z,18.00
2018-05-18T09:28:17.265Z,18.13
2018-05-18T09:29:17.213Z,18.33
2018-05-18T09:30:17.159Z,18.40
2018-05-18T09:31:17.107Z,18.37
2018-05-18T09:32:17.057Z,18.46
2018-05-18T09:33:17.005Z,18.37
2018-05-18T09:34:16.951Z,18.37
2018-05-18T09:35:16.900Z,18.09
2018-05-18T09:36:16.846Z,18.10
2018-05-18T09:37:16.789Z,18.17
2018-05-18T09:38:16.741Z,18.25
2018-05-18T09:39:16.686Z,18.47
2018-05-18T09:40:16.633Z,18.46
2018-05-18T09:41:16.580Z,18.49
2018-05-18T09:42:16.530Z,18.57
2018-05-18T09:43:16.478Z,18.62
2018-05-18T09:44:16.423Z,18.62
2018-05-18T09:45:16.422Z,18.62
2018-05-18T09:46:16.320Z,18.77
2018-05-18T09:47:16.267Z,18.58
2018-05-18T09:48:16.214Z,18.64
2018-05-18T09:49:16.162Z,18.82
2018-05-18T09:50:16.110Z,18.76
2018-05-18T09:51:16.057Z,18.77
2018-05-18T09:52:16.004Z,18.79
2018-05-18T09:53:15.953Z,18.77
2018-05-18T09:54:15.935Z,18.86
2018-05-18T09:55:16.111Z,18.83
2018-05-18T09:56:15.796Z,18.87
2018-05-18T09:57:15.747Z,18.73
2018-05-18T09:58:15.693Z,18.79
2018-05-18T09:59:15.641Z,18.83
2018-05-18T10:00:15.587Z,18.86
2018-05-18T10:01:15.538Z,18.76
2018-05-18T10:02:15.487Z,18.74
2018-05-18T10:03:15.432Z,18.70
2018-05-18T10:04:15.378Z,18.64
2018-05-18T10:05:15.326Z,18.67
2018-05-18T10:06:15.275Z,18.67
2018-05-18T10:07:15.222Z,18.47
2018-05-18T10:08:15.174Z,18.52
2018-05-18T10:09:15.120Z,18.50
2018-05-18T10:10:15.067Z,18.61
2018-05-18T10:11:15.015Z,18.73
2018-05-18T10:12:14.963Z,18.82
2018-05-18T10:13:14.910Z,19.13
2018-05-18T10:14:14.858Z,19.02
2018-05-18T10:15:14.807Z,19.01
2018-05-18T10:16:14.756Z,19.10
2018-05-18T10:17:14.701Z,19.01
2018-05-18T10:18:14.654Z,19.02
2018-05-18T10:19:14.599Z,19.05
2018-05-18T10:20:14.547Z,19.15
2018-05-18T10:21:14.494Z,19.42
2018-05-18T10:22:14.444Z,19.53
2018-05-18T10:23:14.396Z,19.69
2018-05-18T10:24:14.339Z,19.72
2018-05-18T10:25:14.288Z,19.68
2018-05-18T10:26:14.237Z,19.75
2018-05-18T10:27:14.186Z,19.70
2018-05-18T10:28:14.133Z,19.76
2018-05-18T10:29:14.082Z,19.50
2018-05-18T10:30:14.035Z,19.38
2018-05-18T10:31:13.981Z,19.24
2018-05-18T10:32:13.930Z,19.02
2018-05-18T10:33:13.876Z,18.79
2018-05-18T10:34:13.825Z,18.57
2018-05-18T10:35:13.776Z,18.72
2018-05-18T10:36:13.723Z,18.80
2018-05-18T10:37:13.672Z,18.95
2018-05-18T10:38:13.620Z,19.17
2018-05-18T10:39:13.569Z,19.25
2018-05-18T10:40:13.519Z,19.25
2018-05-18T10:41:13.465Z,19.25
2018-05-18T10:42:13.415Z,19.33
2018-05-18T10:43:13.363Z,19.40
2018-05-18T10:44:13.312Z,19.33
2018-05-18T10:45:13.261Z,19.35
2018-05-18T10:46:13.209Z,19.42
2018-05-18T10:47:13.159Z,19.60
2018-05-18T10:48:13.107Z,19.70
2018-05-18T10:49:13.054Z,19.91
2018-05-18T10:50:13.008Z,19.88
2018-05-18T10:51:12.957Z,19.83
2018-05-18T10:52:12.901Z,19.73
2018-05-18T10:53:12.850Z,19.78
2018-05-18T10:54:12.802Z,19.91
2018-05-18T10:55:12.753Z,19.91
2018-05-18T10:56:12.699Z,19.90
2018-05-18T10:57:12.646Z,20.00
2018-05-18T10:58:12.595Z,20.05
2018-05-18T10:59:12.550Z,20.09
2018-05-18T11:00:12.493Z,20.25
2018-05-18T11:01:12.445Z,20.24
2018-05-18T11:02:12.392Z,20.25
2018-05-18T11:03:12.343Z,20.23
2018-05-18T11:04:12.291Z,20.06
2018-05-18T11:05:12.295Z,19.79
2018-05-18T11:06:12.191Z,19.73
2018-05-18T11:07:12.139Z,19.91
2018-05-18T11:08:12.097Z,20.02
2018-05-18T11:09:12.038Z,20.16
2018-05-18T11:10:11.988Z,19.93
2018-05-18T11:11:11.935Z,19.78
2018-05-18T11:12:11.883Z,19.65
2018-05-18T11:13:11.837Z,19.51
2018-05-18T11:14:11.820Z,19.50
2018-05-18T11:15:11.731Z,19.72
2018-05-18T11:16:11.680Z,19.66
2018-05-18T11:17:11.628Z,19.79
2018-05-18T11:18:11.577Z,19.87
2018-05-18T11:19:11.526Z,20.06
2018-05-18T11:20:11.571Z,20.08
2018-05-18T11:21:11.425Z,20.00
2018-05-18T11:22:11.373Z,19.93
2018-05-18T11:23:11.321Z,20.06
2018-05-18T11:24:11.272Z,20.00
2018-05-18T11:25:11.225Z,20.03
2018-05-18T11:26:11.208Z,19.91
2018-05-18T11:27:11.118Z,19.87
2018-05-18T11:28:11.067Z,19.86
2018-05-18T11:29:11.021Z,19.73
2018-05-18T11:30:10.978Z,19.63
2018-05-18T11:31:10.914Z,19.68
2018-05-18T11:32:10.860Z,19.70
2018-05-18T11:33:10.872Z,19.80
2018-05-18T11:34:10.758Z,19.94
2018-05-18T11:35:10.708Z,19.97
2018-05-18T11:36:10.660Z,19.98
2018-05-18T11:37:10.604Z,20.06
2018-05-18T11:38:10.553Z,20.34
2018-05-18T11:39:10.565Z,20.54
2018-05-18T11:40:10.455Z,20.69
2018-05-18T11:41:10.401Z,20.81
2018-05-18T11:42:10.350Z,21.02
2018-05-18T11:43:10.300Z,21.08
2018-05-18T11:44:10.249Z,21.16
2018-05-18T11:45:10.197Z,21.27
2018-05-18T11:46:10.434Z,21.16
2018-05-18T11:47:10.097Z,21.13
2018-05-18T11:48:10.150Z,21.11
2018-05-18T11:49:09.996Z,21.17
2018-05-18T11:50:09.944Z,21.14
2018-05-18T11:51:09.897Z,21.09
2018-05-18T11:52:09.843Z,21.13
2018-05-18T11:53:09.796Z,21.11
2018-05-18T11:54:09.744Z,21.23
2018-05-18T11:55:09.694Z,21.23
2018-05-18T11:56:09.645Z,21.02
2018-05-18T11:57:09.599Z,20.91
2018-05-18T11:58:09.543Z,20.91
2018-05-18T11:59:09.493Z,20.95
2018-05-18T12:00:09.442Z,20.84
2018-05-18T12:01:09.392Z,21.01
2018-05-18T12:02:09.342Z,21.08
2018-05-18T12:03:09.296Z,20.87
2018-05-18T12:04:09.241Z,20.83
2018-05-18T12:05:09.191Z,20.84
2018-05-18T12:06:09.142Z,20.84
2018-05-18T12:07:09.091Z,20.86
2018-05-18T12:08:09.044Z,21.01
2018-05-18T12:09:08.991Z,20.93
2018-05-18T12:10:08.945Z,20.83
2018-05-18T12:11:08.891Z,20.83
2018-05-18T12:12:08.841Z,20.77
2018-05-18T12:13:08.790Z,20.47
2018-05-18T12:14:08.802Z,20.47
2018-05-18T12:15:08.692Z,20.65
2018-05-18T12:16:08.639Z,20.71
2018-05-18T12:17:08.589Z,20.90
2018-05-18T12:18:08.562Z,20.91
2018-05-18T12:19:08.489Z,20.87
2018-05-18T12:20:08.439Z,20.80
2018-05-18T12:21:08.388Z,20.74
2018-05-18T12:22:08.338Z,20.58
2018-05-18T12:23:08.289Z,20.51
2018-05-18T12:24:08.239Z,20.62
2018-05-18T12:25:08.193Z,20.72
2018-05-18T12:26:08.232Z,20.84
2018-05-18T12:27:08.087Z,20.83
2018-05-18T12:28:08.039Z,20.80
2018-05-18T12:29:07.991Z,20.74
2018-05-18T12:30:07.943Z,20.89
2018-05-18T12:31:07.891Z,21.09
2018-05-18T12:32:07.840Z,21.19
2018-05-18T12:33:07.787Z,21.38
2018-05-18T12:34:07.737Z,21.34
2018-05-18T12:35:07.687Z,21.29
2018-05-18T12:36:07.638Z,21.32
2018-05-18T12:37:07.586Z,21.24
2018-05-18T12:38:07.580Z,21.06
2018-05-18T12:39:07.487Z,20.84
2018-05-18T12:40:07.437Z,20.83
2018-05-18T12:41:07.386Z,20.83
2018-05-18T12:42:07.337Z,20.90
2018-05-18T12:43:07.287Z,20.96
2018-05-18T12:44:07.235Z,20.96
2018-05-18T12:45:07.189Z,21.08
2018-05-18T12:46:07.136Z,21.13
2018-05-18T12:47:07.085Z,20.96
2018-05-18T12:48:07.038Z,20.90
2018-05-18T12:49:06.986Z,21.05
2018-05-18T12:50:06.935Z,21.09
2018-05-18T12:51:06.886Z,21.11
2018-05-18T12:52:06.835Z,21.29
2018-05-18T12:53:06.788Z,21.14
2018-05-18T12:54:06.813Z,21.17
2018-05-18T12:55:06.688Z,21.19
2018-05-18T12:56:06.637Z,21.26
2018-05-18T12:57:06.588Z,21.36
2018-05-18T12:58:06.537Z,21.51
2018-05-18T12:59:06.487Z,21.69
2018-05-18T13:00:06.438Z,21.72
2018-05-18T13:01:06.387Z,21.59
2018-05-18T13:02:06.340Z,21.39
2018-05-18T13:03:06.293Z,21.26
2018-05-18T13:04:06.236Z,21.38
2018-05-18T13:05:06.186Z,21.32